Hubbard, OH

8:58 PM EDT on September 15, 2014 (GMT -0400)
Beaver County | Change Station
CLOSE
Current Station
Airport
Location: Beaver Falls,
Elevation: 1253 ft
Nearby Weather Stations

Elev 1253 ft 40.77 °N, 80.39 °W | Updated 1 hour ago

Partly Cloudy
Partly Cloudy
61 °F
Feels Like 61 °F
N
0
Wind Variable Wind from North

Today
High -- | Low -- °F
--% Chance of Precip.
Yesterday
High -- | Low -- °F
Precip. -- in
7:02 AM 7:31 PM
Waning Gibbous, 50% visible
Pressure 30.07 in
Visibility 10.0 miles
Clouds Scattered Clouds 10000 ft
Dew Point 52 °F
Humidity 72%
Rainfall 0.00 in
Snow Depth Not available.
UV 0 out of 12
Pollen 3.80 out of 12
Ozone Good
PM2.5 Good
Flu Activity Not available.
METAR KBVI 152347Z 00000KT 10SM SCT100 16/11 A3007

More Conditions Fewer Conditions

Pressure 30.07 in
Visibility 10.0 miles
Clouds Scattered Clouds 10000 ft
Dew Point 52 °F
Humidity 72%
Rainfall 0.00 in
Snow Depth Not available.
UV 0 out of 12
Pollen 3.80 out of 12
Ozone Good
PM2.5 Good
Flu Activity Not available.
METAR KBVI 152347Z 00000KT 10SM SCT100 16/11 A3007

More Conditions Fewer Conditions

10-Day Weather Forecast

Almanac

Astronomy

Sep. 15, 2014 Rise Set
Actual Time 7:02 AM EDT 7:31 PM EDT
Civil Twilight 6:35 AM EDT 7:59 PM EDT
Nautical Twilight 6:02 AM EDT 8:31 PM EDT
Astronomical Twilight 5:28 AM EDT 9:05 PM EDT
Moon No Moon Rise 2:04 PM EDT (9/15)
Length of Visible Light 13h 24m
Length of Day
12h 28m
Tomorrow will be 2m 43s shorter.
Waning Gibbous, 50% of the Moon is Illuminated
Today
Waning Gibbous
Sep 15
Last Quarter
Sep 24
New
Oct 1
First Quarter
Oct 8
Full

Today's Extremes

State Highs State Lows

Community

WunderPhotos

Upload Photos

1,753,630 photos uploaded!

Nearby

Air Quality

  Air Quality AQ Index Pollutant
Yesterday Good
PM2.5
Yesterday Good
OZONE
Current Good
PM2.5
Current Good
OZONE
Monday Moderate
PM2.5
Monday Good
OZONE
Tuesday Good
PM2.5
Tuesday Good
OZONE
Wednesday Good
OZONE
Wednesday Good
PM2.5
Thursday Good
OZONE
Thursday Good
PM2.5
Friday Good
OZONE
Friday Good
PM2.5
Saturday Moderate
OZONE
Saturday Moderate
PM2.5

Snow Depth

Station Depth Elevation
No new snow has been reported.

Earthquake Activity

City Distance Mag. Time & Date
No recent earthquake activity has been reported nearby.
Minimum magnitude displayed is 2.5.

Coastal Water Temperatures

Place Temperature
No Stations Reporting

Nearby Weather Stations